createdAt,value
2018-07-15T12:51:06.815Z,34.50
2018-07-15T12:53:35.838Z,34.40
2018-07-15T12:56:04.949Z,34.10
2018-07-15T12:58:34.041Z,33.30
2018-07-15T13:01:03.095Z,32.40
2018-07-15T13:03:32.160Z,32.70
2018-07-15T13:06:01.355Z,34.00
2018-07-15T13:08:30.411Z,34.30
2018-07-15T13:10:59.495Z,36.10
2018-07-15T13:13:28.567Z,37.00
2018-07-15T13:16:13.547Z,36.50
2018-07-15T13:18:42.576Z,35.80
2018-07-15T13:21:11.659Z,35.70
2018-07-15T13:23:40.782Z,35.40
2018-07-15T13:26:09.874Z,36.40
2018-07-15T13:28:38.958Z,35.70
2018-07-15T13:31:07.996Z,36.10
2018-07-15T13:33:37.056Z,35.70
2018-07-15T13:36:06.320Z,34.50
2018-07-15T13:38:35.394Z,35.30
2018-07-15T13:41:04.452Z,36.20
2018-07-15T13:43:33.556Z,35.80
2018-07-15T13:46:02.614Z,37.00
2018-07-15T13:48:31.652Z,35.20
2018-07-15T13:51:00.717Z,35.00
2018-07-15T13:53:29.738Z,33.80
2018-07-15T13:55:58.771Z,33.70
2018-07-15T13:58:28.058Z,34.90
2018-07-15T14:00:57.115Z,35.00
2018-07-15T14:03:26.225Z,34.70
2018-07-15T14:05:55.274Z,35.10
2018-07-15T14:08:24.391Z,32.60
2018-07-15T14:10:53.428Z,34.00
2018-07-15T14:13:22.521Z,32.90
2018-07-15T14:15:51.623Z,33.80
2018-07-15T14:18:20.714Z,32.80
2018-07-15T14:20:49.788Z,33.30
2018-07-15T14:23:18.933Z,32.80
2018-07-15T14:25:47.979Z,32.90
2018-07-15T14:28:17.023Z,33.20
2018-07-15T14:30:46.078Z,33.50
2018-07-15T14:33:15.199Z,33.60
2018-07-15T14:35:44.306Z,33.40
2018-07-15T14:38:13.565Z,37.80
2018-07-15T14:40:42.602Z,39.70
2018-07-15T14:43:11.652Z,35.70
2018-07-15T14:45:42.103Z,40.70
2018-07-15T14:48:11.343Z,41.90
2018-07-15T14:50:41.147Z,40.20
2018-07-15T14:53:10.318Z,39.30
2018-07-15T14:55:40.035Z,39.90
2018-07-15T14:58:10.515Z,41.10
2018-07-15T15:00:39.752Z,40.70
2018-07-15T15:03:08.822Z,40.80
2018-07-15T15:05:37.911Z,42.20
2018-07-15T15:08:06.959Z,40.30
2018-07-15T15:10:36.015Z,36.00
2018-07-15T15:13:05.108Z,41.80
2018-07-15T15:15:34.137Z,42.80
2018-07-15T15:18:03.343Z,42.20
2018-07-15T15:20:32.404Z,43.60
2018-07-15T15:23:01.440Z,43.30
2018-07-15T15:25:30.504Z,42.90
2018-07-15T15:27:59.547Z,43.10
2018-07-15T15:30:28.583Z,44.20
2018-07-15T15:32:57.610Z,44.60
2018-07-15T15:35:26.681Z,43.50
2018-07-15T15:37:55.741Z,43.60
2018-07-15T15:40:24.814Z,42.70
2018-07-15T15:42:53.869Z,42.80
2018-07-15T15:45:22.955Z,44.10
2018-07-15T15:47:52.023Z,42.90
2018-07-15T15:50:21.126Z,42.70
2018-07-15T15:52:50.234Z,43.70
2018-07-15T15:55:19.284Z,44.70
2018-07-15T15:57:48.343Z,44.60
2018-07-15T16:00:17.388Z,44.90
2018-07-15T16:02:46.472Z,45.50
2018-07-15T16:05:15.524Z,45.40
2018-07-15T16:07:44.575Z,44.90
2018-07-15T16:10:13.639Z,45.80
2018-07-15T16:12:42.708Z,45.30
2018-07-15T16:15:11.780Z,44.90
2018-07-15T16:17:40.848Z,44.50
2018-07-15T16:20:09.910Z,45.00
2018-07-15T16:22:38.944Z,45.60
2018-07-15T16:25:08.371Z,45.90
2018-07-15T16:27:37.382Z,45.30
2018-07-15T16:30:06.480Z,45.50
2018-07-15T16:32:35.675Z,43.80
2018-07-15T16:35:04.763Z,44.40
2018-07-15T16:37:33.807Z,44.50
2018-07-15T16:40:02.882Z,44.80
2018-07-15T16:42:31.931Z,45.50
2018-07-15T16:45:01.162Z,45.10
2018-07-15T16:47:30.219Z,44.40
2018-07-15T16:49:59.251Z,44.70
2018-07-15T16:52:28.419Z,45.20
2018-07-15T16:54:57.514Z,44.40
2018-07-15T16:57:26.565Z,43.80
2018-07-15T16:59:55.638Z,44.90
2018-07-15T17:02:24.741Z,44.70
2018-07-15T17:04:53.793Z,44.80
2018-07-15T17:07:22.835Z,44.80
2018-07-15T17:09:51.904Z,44.40
2018-07-15T17:12:20.994Z,44.90
2018-07-15T17:14:50.050Z,44.70
2018-07-15T17:17:19.123Z,45.10
2018-07-15T17:19:48.184Z,45.20
2018-07-15T17:22:17.334Z,45.70
2018-07-15T17:24:46.383Z,45.70
2018-07-15T17:27:15.479Z,46.40
2018-07-15T17:29:44.596Z,45.60
2018-07-15T17:32:13.659Z,44.90
2018-07-15T17:34:42.699Z,45.00
2018-07-15T17:37:11.779Z,45.90
2018-07-15T17:39:40.856Z,45.20
2018-07-15T17:42:10.216Z,45.20
2018-07-15T17:44:39.291Z,44.90
2018-07-15T17:47:08.395Z,46.40
2018-07-15T17:49:37.439Z,46.20
2018-07-15T17:52:06.499Z,46.10
2018-07-15T17:54:35.584Z,47.00
2018-07-15T17:57:04.657Z,47.50
2018-07-15T17:59:33.712Z,48.00
2018-07-15T18:02:02.826Z,48.90
2018-07-15T18:04:32.047Z,48.30
2018-07-15T18:09:29.747Z,48.80
2018-07-15T18:11:58.783Z,49.20
2018-07-15T18:14:27.828Z,48.80
2018-07-15T18:16:56.948Z,48.70
2018-07-15T18:19:26.071Z,48.60
2018-07-15T18:21:55.129Z,48.80
2018-07-15T18:24:24.179Z,48.70
2018-07-15T18:26:53.403Z,48.30
2018-07-15T18:29:22.546Z,48.00
2018-07-15T18:34:21.128Z,48.70
2018-07-15T18:36:50.262Z,49.00
2018-07-15T18:39:19.367Z,49.30
2018-07-15T18:41:50.636Z,49.80
2018-07-15T18:44:19.693Z,49.90
2018-07-15T18:46:49.154Z,50.20
2018-07-15T18:49:18.282Z,50.50
2018-07-15T18:51:47.418Z,50.10
2018-07-15T18:54:16.513Z,50.50
2018-07-15T18:56:45.588Z,50.90
2018-07-15T18:59:14.652Z,51.20
2018-07-15T19:01:43.723Z,51.40
2018-07-15T19:04:12.863Z,51.60
2018-07-15T19:06:41.920Z,51.50
2018-07-15T19:09:11.091Z,51.90
2018-07-15T19:11:40.149Z,52.20
2018-07-15T19:14:09.223Z,52.70
2018-07-15T19:16:38.349Z,52.90
2018-07-15T19:19:07.446Z,52.90
2018-07-15T19:21:36.539Z,53.50
2018-07-15T19:24:06.043Z,53.70
2018-07-15T19:26:35.653Z,54.00
2018-07-15T19:29:04.838Z,54.30
2018-07-15T19:31:33.966Z,54.70
2018-07-15T19:34:03.005Z,54.80
2018-07-15T19:36:32.113Z,55.00
2018-07-15T19:39:01.235Z,55.20
2018-07-15T19:43:58.984Z,55.90
2018-07-15T19:46:28.049Z,56.00
2018-07-15T19:48:57.269Z,56.30
2018-07-15T19:51:26.336Z,56.60
2018-07-15T19:53:55.391Z,56.80
2018-07-15T19:56:24.426Z,57.10
2018-07-15T19:58:54.501Z,57.40
2018-07-15T20:01:23.633Z,57.40
2018-07-15T20:03:52.645Z,57.60
2018-07-15T20:06:21.690Z,57.50
2018-07-15T20:08:50.753Z,57.40
2018-07-15T20:11:19.807Z,57.20
2018-07-15T20:13:48.888Z,57.20
2018-07-15T20:16:17.939Z,56.80
2018-07-15T20:18:47.205Z,56.50
2018-07-15T20:21:16.496Z,56.30
2018-07-15T20:23:45.570Z,56.80
2018-07-15T20:26:14.635Z,57.10
2018-07-15T20:28:43.866Z,57.10
2018-07-15T20:31:13.097Z,56.90
2018-07-15T20:33:42.188Z,56.90
2018-07-15T20:36:11.284Z,56.60
2018-07-15T20:38:40.346Z,57.10
2018-07-15T20:41:09.466Z,56.80
2018-07-15T20:43:38.945Z,57.00
2018-07-15T20:46:08.357Z,57.10
2018-07-15T20:48:37.419Z,57.60
2018-07-15T20:51:06.659Z,57.60
2018-07-15T20:53:35.748Z,57.60
2018-07-15T20:56:04.827Z,57.60
2018-07-15T20:58:34.407Z,57.90
2018-07-15T21:01:03.452Z,58.10
2018-07-15T21:03:32.641Z,58.10
2018-07-15T21:06:01.744Z,58.20
2018-07-15T21:08:30.921Z,58.20
2018-07-15T21:11:00.016Z,58.50
2018-07-15T21:13:29.090Z,58.60
2018-07-15T21:15:58.172Z,58.70
2018-07-15T21:18:27.257Z,58.40
2018-07-15T21:20:56.347Z,58.40
2018-07-15T21:23:25.405Z,58.40
2018-07-15T21:25:54.498Z,58.90
2018-07-15T21:28:23.579Z,58.70
2018-07-15T21:30:52.618Z,58.90
2018-07-15T21:33:21.762Z,58.90
2018-07-15T21:35:50.845Z,59.20
2018-07-15T21:38:19.892Z,59.20
2018-07-15T21:40:49.011Z,59.10
2018-07-15T21:43:18.076Z,59.50
2018-07-15T21:45:47.135Z,59.80
2018-07-15T21:48:16.185Z,59.80
2018-07-15T21:50:45.249Z,60.10
2018-07-15T21:53:14.334Z,60.30
2018-07-15T21:55:43.399Z,60.90
2018-07-15T21:58:12.453Z,61.20
2018-07-15T22:00:41.503Z,61.20
2018-07-15T22:03:10.550Z,61.20
2018-07-15T22:05:39.615Z,61.60
2018-07-15T22:08:19.978Z,62.50
2018-07-15T22:10:49.068Z,62.00
2018-07-15T22:13:18.136Z,62.70
2018-07-15T22:15:47.211Z,63.30
2018-07-15T22:18:16.295Z,63.50
2018-07-15T22:20:45.394Z,63.80
2018-07-15T22:23:14.516Z,64.20
2018-07-15T22:25:43.650Z,64.30
2018-07-15T22:28:12.930Z,64.80
2018-07-15T22:30:42.024Z,65.30
2018-07-15T22:33:11.071Z,65.70
2018-07-15T22:35:40.111Z,66.10
2018-07-15T22:38:09.597Z,66.40
2018-07-15T22:40:38.790Z,66.70
2018-07-15T22:43:07.863Z,66.80
2018-07-15T22:45:36.952Z,67.40
2018-07-15T22:48:06.067Z,67.80
2018-07-15T22:50:35.145Z,68.10
2018-07-15T22:53:04.192Z,68.50
2018-07-15T22:55:33.339Z,69.10
2018-07-15T22:58:02.444Z,69.90
2018-07-15T23:00:31.646Z,70.10
2018-07-15T23:03:00.696Z,70.40
2018-07-15T23:05:42.237Z,70.60
2018-07-15T23:08:11.632Z,71.10
2018-07-15T23:10:40.791Z,71.30
2018-07-15T23:13:10.763Z,71.80
2018-07-15T23:15:40.155Z,72.10
2018-07-15T23:18:09.236Z,72.30
2018-07-15T23:20:39.159Z,72.60
2018-07-15T23:23:08.978Z,73.00
2018-07-15T23:25:38.065Z,73.10
2018-07-15T23:28:08.310Z,73.40
2018-07-15T23:30:38.222Z,73.90
2018-07-15T23:33:07.769Z,74.10
2018-07-15T23:35:36.888Z,74.30
2018-07-15T23:38:06.130Z,75.10
2018-07-15T23:40:35.213Z,75.30
2018-07-15T23:43:04.515Z,76.10
2018-07-15T23:45:34.411Z,76.10
2018-07-15T23:48:03.481Z,76.90
2018-07-15T23:50:32.582Z,77.40
2018-07-15T23:53:01.677Z,78.40
2018-07-15T23:55:30.739Z,79.20
2018-07-15T23:57:59.818Z,79.60
